Time;durP1;ratioP1;P1;durP2;ratioP2;P2;SDS_P1;SDS_P2;PMS_P1;PMS_P2;Temp;Humidity;BMP_temperature;BMP_pressure;BME280_temperature;BME280_humidity;BME280_pressure;Samples;Min_cycle;Max_cycle;Signal;HPM_P1;HPM_P2
2022/04/20 00:00:43;;;;;;;6.55;5.25;;;;;;;16.12;39.40;93082.75;4995463;28;20088;-91
2022/04/20 00:03:08;;;;;;;6.50;4.88;;;;;;;16.13;38.58;93084.22;5017905;28;20025;-89
2022/04/20 00:05:33;;;;;;;6.88;5.80;;;;;;;16.10;38.77;93088.69;5027545;28;20474;-92
2022/04/20 00:08:05;;;;;;;7.32;5.25;;;;;;;16.11;38.85;93082.00;5010471;28;20041;-90
2022/04/20 00:10:31;;;;;;;6.72;5.07;;;;;;;16.12;38.50;93082.75;4977439;28;20081;-90
2022/04/20 00:12:57;;;;;;;6.22;5.47;;;;;;;16.11;38.46;93083.97;4973867;28;20116;-91
2022/04/20 00:15:23;;;;;;;8.68;5.45;;;;;;;16.13;38.53;93086.22;4960857;28;20551;-90
2022/04/20 00:17:48;;;;;;;6.28;5.07;;;;;;;16.14;38.96;93087.69;4938791;28;20062;-90
2022/04/20 00:20:14;;;;;;;6.35;5.10;;;;;;;16.12;38.61;93090.91;4970366;28;20416;-90
2022/04/20 00:22:39;;;;;;;6.38;5.57;;;;;;;16.14;38.29;93098.59;4973481;28;20431;-92
2022/04/20 00:25:04;;;;;;;6.72;5.60;;;;;;;16.15;38.89;93089.91;4963880;28;20420;-89
2022/04/20 00:27:35;;;;;;;6.75;5.72;;;;;;;16.13;38.56;93091.66;4960634;28;20404;-91
2022/04/20 00:30:03;;;;;;;;;;;;;;;16.16;38.82;93091.41;4986687;28;20133;-90
2022/04/20 00:32:29;;;;;;;6.07;4.88;;;;;;;16.15;38.63;93087.19;4973617;28;20383;-91
2022/04/20 00:34:55;;;;;;;6.45;4.90;;;;;;;16.09;38.56;93079.03;4974744;28;20065;-93
2022/04/20 00:37:20;;;;;;;5.72;4.63;;;;;;;16.08;38.60;93080.28;4972731;28;20516;-89
2022/04/20 00:39:46;;;;;;;5.15;4.65;;;;;;;16.10;38.88;93085.97;4971266;28;20065;-89
2022/04/20 00:42:11;;;;;;;6.65;5.10;;;;;;;16.10;38.83;93090.69;4990251;28;20056;-90
2022/04/20 00:44:36;;;;;;;5.30;4.80;;;;;;;16.12;38.89;93088.19;4978234;28;20099;-91
2022/04/20 00:47:02;;;;;;;6.90;5.20;;;;;;;16.08;38.49;93091.19;4994552;28;20415;-89
2022/04/20 00:49:27;;;;;;;5.75;4.95;;;;;;;16.07;38.89;93088.97;4978189;28;20042;-92
2022/04/20 00:51:54;;;;;;;6.68;4.80;;;;;;;16.11;38.83;93090.19;4989237;28;20046;-90
2022/04/20 00:54:20;;;;;;;5.55;4.88;;;;;;;16.07;38.66;93103.34;4978283;28;20045;-91
2022/04/20 00:56:45;;;;;;;6.18;5.30;;;;;;;16.06;38.71;93087.47;5014487;28;20045;-91
2022/04/20 00:59:11;;;;;;;5.82;4.28;;;;;;;16.07;38.93;93094.41;5013941;28;20411;-90
2022/04/20 01:01:37;;;;;;;6.30;5.13;;;;;;;16.08;38.44;93090.44;4997683;28;20507;-90
2022/04/20 01:04:02;;;;;;;6.85;5.32;;;;;;;16.07;38.56;93086.22;4985025;28;20033;-90
2022/04/20 01:06:28;;;;;;;5.90;4.80;;;;;;;16.07;38.45;93094.41;4985830;28;20041;-89
2022/04/20 01:08:54;;;;;;;6.82;4.88;;;;;;;16.07;38.87;93092.44;5014196;28;20030;-90
2022/04/20 01:11:19;;;;;;;5.10;4.60;;;;;;;16.03;38.75;93083.75;5027207;28;20037;-90
2022/04/20 01:13:45;;;;;;;5.72;4.57;;;;;;;16.06;38.60;93085.50;5033781;28;20560;-90
2022/04/20 01:16:10;;;;;;;5.20;4.70;;;;;;;16.07;38.33;93086.22;5012938;28;20037;-91
2022/04/20 01:18:42;;;;;;;5.57;5.00;;;;;;;16.08;38.19;93080.28;4997823;28;20037;-90
2022/04/20 01:21:07;;;;;;;5.85;4.60;;;;;;;16.09;38.33;93081.75;4999707;28;20079;-89
2022/04/20 01:23:33;;;;;;;6.30;5.03;;;;;;;16.09;37.90;93075.56;5014217;28;20037;-89
2022/04/20 01:25:58;;;;;;;5.30;4.80;;;;;;;16.04;38.47;93074.34;5013907;28;20411;-91
2022/04/20 01:28:23;;;;;;;4.93;4.43;;;;;;;16.02;38.35;93065.91;5013408;28;20049;-90
2022/04/20 01:30:49;;;;;;;5.95;4.82;;;;;;;16.05;37.99;93075.09;4997396;28;20046;-91
2022/04/20 01:33:14;;;;;;;6.30;4.90;;;;;;;16.07;38.25;93070.63;4996553;28;20099;-90
2022/04/20 01:35:40;;;;;;;4.63;4.15;;;;;;;16.01;38.43;93064.47;5029906;28;20057;-90
2022/04/20 01:38:05;;;;;;;5.43;4.65;;;;;;;16.06;38.12;93068.38;5012899;28;20511;-89
2022/04/20 01:40:31;;;;;;;5.35;4.78;;;;;;;16.01;38.43;93056.28;5026492;28;20056;-90
2022/04/20 01:42:57;;;;;;;5.90;4.90;;;;;;;16.03;38.16;93066.66;5030719;28;20511;-90
2022/04/20 01:45:22;;;;;;;5.82;4.95;;;;;;;16.01;38.36;93063.72;5012004;28;20054;-91
2022/04/20 01:47:47;;;;;;;5.53;4.45;;;;;;;15.99;38.31;93056.03;5029373;28;20038;-89
2022/04/20 01:50:13;;;;;;;5.43;4.65;;;;;;;16.06;37.98;93066.41;5020821;28;20033;-90
2022/04/20 01:52:38;;;;;;;4.88;4.35;;;;;;;16.02;38.38;93071.38;5028622;28;20376;-90
2022/04/20 01:55:04;;;;;;;4.40;4.00;;;;;;;16.02;38.41;93067.94;5029276;28;20046;-91
2022/04/20 01:57:29;;;;;;;4.65;4.07;;;;;;;16.04;38.27;93060.72;5029647;28;20517;-90
2022/04/20 01:59:55;;;;;;;4.90;4.15;;;;;;;15.99;37.82;93058.03;5012537;28;20033;-91
2022/04/20 02:02:35;;;;;;;6.25;4.50;;;;;;;15.98;38.41;93054.56;5028206;28;20415;-90
2022/04/20 02:05:04;;;;;;;5.03;4.47;;;;;;;15.99;38.41;93064.22;5034423;28;20561;-89
2022/04/20 02:07:30;;;;;;;5.43;4.68;;;;;;;15.97;37.89;93061.25;5014558;28;20286;-89
2022/04/20 02:09:56;;;;;;;5.25;4.63;;;;;;;15.99;38.16;93066.22;5030106;28;20399;-91
2022/04/20 02:12:21;;;;;;;4.93;4.20;;;;;;;15.99;38.36;93064.22;4995898;28;20053;-90
2022/04/20 02:14:47;;;;;;;5.55;4.35;;;;;;;15.98;37.98;93067.44;4996931;28;20076;-89
2022/04/20 02:17:12;;;;;;;5.57;4.60;;;;;;;15.98;38.30;93067.44;5015444;28;20052;-89
2022/04/20 02:19:37;;;;;;;6.15;5.00;;;;;;;16.00;38.41;93060.25;5015757;28;20044;-89
2022/04/20 02:22:03;;;;;;;5.60;4.50;;;;;;;16.01;38.19;93061.75;5012700;28;20037;-90
2022/04/20 02:24:28;;;;;;;4.47;4.07;;;;;;;16.00;38.33;93056.78;5004367;28;20045;-91
2022/04/20 02:26:54;;;;;;;4.63;3.97;;;;;;;15.98;38.21;93068.19;5013475;28;20045;-91
2022/04/20 02:29:19;;;;;;;4.53;4.00;;;;;;;16.00;38.44;93071.16;5032319;28;20067;-91
2022/04/20 02:31:45;;;;;;;4.93;4.28;;;;;;;15.98;38.25;93073.66;5031685;28;20071;-90
2022/04/20 02:34:10;;;;;;;5.20;4.50;;;;;;;16.00;38.20;93062.97;5030977;28;20430;-92
2022/04/20 02:36:36;;;;;;;5.18;4.47;;;;;;;16.01;38.54;93067.19;5032275;28;20040;-91
2022/04/20 02:39:04;;;;;;;6.32;4.65;;;;;;;15.98;38.50;93072.91;5030384;28;20447;-90
2022/04/20 02:41:31;;;;;;;5.10;4.43;;;;;;;15.97;38.42;93063.97;5009943;28;20095;-90
2022/04/20 02:43:56;;;;;;;4.18;3.78;;;;;;;16.00;38.38;93054.81;5012448;28;20545;-91
2022/04/20 02:46:23;;;;;;;5.32;4.75;;;;;;;15.99;38.38;93053.31;5011417;28;20061;-91
2022/04/20 02:48:49;;;;;;;6.40;4.95;;;;;;;15.97;38.38;93055.06;5012484;28;20033;-90
2022/04/20 02:51:14;;;;;;;5.45;4.60;;;;;;;15.95;38.54;93055.56;5011351;28;20174;-90
2022/04/20 02:53:40;;;;;;;6.15;5.13;;;;;;;15.99;38.23;93058.03;5012384;28;20041;-90
2022/04/20 02:56:06;;;;;;;5.15;4.43;;;;;;;15.98;38.58;93038.22;4995569;28;20504;-91
2022/04/20 02:58:31;;;;;;;5.13;4.13;;;;;;;15.96;38.03;93048.88;4995429;28;20053;-90
2022/04/20 03:00:56;;;;;;;5.47;4.07;;;;;;;15.99;38.48;93049.84;5011863;28;20038;-90
2022/04/20 03:03:23;;;;;;;5.90;4.20;;;;;;;15.99;38.49;93041.66;5018421;28;20403;-92
2022/04/20 03:05:48;;;;;;;5.32;4.55;;;;;;;15.98;38.16;93045.66;5028168;28;20052;-89
2022/04/20 03:08:14;;;;;;;6.20;5.22;;;;;;;15.99;38.21;93047.88;5014570;28;20040;-90
2022/04/20 03:10:39;;;;;;;4.68;4.15;;;;;;;15.97;38.19;93046.88;5011644;28;20049;-88
2022/04/20 03:13:05;;;;;;;4.93;3.92;;;;;;;15.95;38.24;93043.91;4994736;28;20097;-91
2022/04/20 03:15:30;;;;;;;5.75;3.90;;;;;;;15.94;38.06;93034.25;4995068;28;20045;-91
2022/04/20 03:17:57;;;;;;;5.00;4.05;;;;;;;15.96;38.03;93039.94;5027817;28;20030;-90
2022/04/20 03:20:23;;;;;;;4.93;4.43;;;;;;;15.92;38.38;93037.50;4990710;28;20049;-90
2022/04/20 03:22:48;;;;;;;4.55;4.03;;;;;;;15.97;37.93;93035.97;4993693;28;20131;-90
2022/04/20 03:25:14;;;;;;;5.10;4.60;;;;;;;15.93;37.86;93027.31;4998243;28;20524;-89
2022/04/20 03:27:40;;;;;;;5.65;5.00;;;;;;;15.93;37.97;93025.34;5030618;28;20078;-90
2022/04/20 03:30:06;;;;;;;4.80;4.32;;;;;;;15.94;38.25;93032.28;5014155;28;20764;-89
2022/04/20 03:32:31;;;;;;;6.25;4.80;;;;;;;15.94;38.36;93037.72;5014373;28;20537;-90
2022/04/20 03:34:57;;;;;;;4.60;4.20;;;;;;;15.95;38.06;93041.19;4999011;28;20037;-91
2022/04/20 03:37:22;;;;;;;4.93;4.43;;;;;;;15.97;38.22;93038.72;5031071;28;20414;-90
2022/04/20 03:39:47;;;;;;;5.00;4.35;;;;;;;15.98;38.34;93043.66;5010908;28;20033;-93
2022/04/20 03:42:14;;;;;;;5.85;4.35;;;;;;;15.97;38.21;93041.44;4977974;28;20047;-89
2022/04/20 03:44:40;;;;;;;4.90;4.22;;;;;;;15.92;37.90;93040.22;4995635;28;20044;-90
2022/04/20 03:47:06;;;;;;;7.35;4.32;;;;;;;15.94;38.21;93042.44;4978318;28;20038;-92
2022/04/20 03:49:31;;;;;;;5.95;5.05;;;;;;;15.96;37.77;93034.50;4978981;28;20037;-90
2022/04/20 03:51:58;;;;;;;7.07;5.05;;;;;;;15.96;37.69;93037.97;5010786;28;20034;-91
2022/04/20 03:54:23;;;;;;;5.15;4.63;;;;;;;15.94;37.76;93026.81;5008733;28;20060;-89
2022/04/20 03:57:03;;;;;;;9.75;4.80;;;;;;;15.94;37.74;93034.25;5015440;28;20041;-89
2022/04/20 03:59:32;;;;;;;6.30;4.75;;;;;;;15.93;37.99;93024.59;5031772;28;20044;-89
2022/04/20 04:01:58;;;;;;;6.28;5.25;;;;;;;15.95;37.92;93031.03;4997797;28;20124;-88
2022/04/20 04:04:24;;;;;;;8.45;4.97;;;;;;;15.94;38.04;93034.25;4997238;28;20059;-90
2022/04/20 04:06:49;;;;;;;13.63;5.25;;;;;;;15.91;37.79;93038.00;5021878;28;20041;-90
2022/04/20 04:09:15;;;;;;;8.55;5.47;;;;;;;15.92;38.22;93039.47;5029966;28;20510;-89
2022/04/20 04:11:40;;;;;;;8.70;5.90;;;;;;;15.86;38.09;93031.31;5026426;28;20092;-88
2022/04/20 04:14:06;;;;;;;7.88;6.15;;;;;;;15.91;37.44;93044.19;5028244;28;20510;-87
2022/04/20 04:16:36;;;;;;;9.48;5.57;;;;;;;15.87;37.83;93053.88;5029535;28;20538;-88
2022/04/20 04:19:04;;;;;;;12.32;6.15;;;;;;;15.87;37.86;93051.88;5031266;28;20060;-89
2022/04/20 04:21:30;;;;;;;12.93;6.68;;;;;;;15.89;37.90;93052.13;5007041;28;20091;-87
2022/04/20 04:23:56;;;;;;;20.50;6.30;;;;;;;15.91;38.22;93054.34;5014556;28;20083;-90
2022/04/20 04:26:22;;;;;;;17.20;7.20;;;;;;;15.91;38.07;93054.34;5011300;28;21239;-87
2022/04/20 04:28:49;;;;;;;16.23;6.80;;;;;;;15.97;38.36;93061.25;5001618;28;20033;-88
2022/04/20 04:31:15;;;;;;;25.90;9.93;;;;;;;15.98;38.36;93059.28;5014383;28;20041;-89
2022/04/20 04:33:40;;;;;;;38.40;18.75;;;;;;;15.97;38.36;93055.81;5027451;28;20099;-85
2022/04/20 04:36:07;;;;;;;47.45;19.25;;;;;;;16.00;38.56;93065.72;5051516;28;20522;-90
2022/04/20 04:38:32;;;;;;;49.75;22.92;;;;;;;16.00;38.41;93056.78;5035677;28;20045;-90
2022/04/20 04:40:59;;;;;;;44.28;16.48;;;;;;;16.02;38.08;93054.31;5035487;28;20111;-89
2022/04/20 04:43:25;;;;;;;46.22;18.23;;;;;;;16.02;37.66;93046.84;5027953;28;20048;-89
2022/04/20 04:48:38;;;;;;;58.45;22.88;;;;;;;16.08;38.19;93044.09;5032928;28;20102;-91
2022/04/20 04:51:03;;;;;;;62.85;24.02;;;;;;;16.05;38.33;93051.28;5045225;28;20041;-91
2022/04/20 04:53:29;;;;;;;47.40;24.17;;;;;;;16.05;37.81;93045.84;5029685;28;20447;-86
2022/04/20 04:55:55;;;;;;;69.38;29.67;;;;;;;16.02;38.06;93055.00;5012902;28;20435;-87
2022/04/20 04:58:20;;;;;;;64.28;28.70;;;;;;;16.02;38.36;93051.56;5027579;28;20067;-89
2022/04/20 05:00:45;;;;;;;54.53;20.90;;;;;;;15.93;36.37;93052.59;5044279;28;20120;-88
2022/04/20 05:03:13;;;;;;;54.22;23.25;;;;;;;15.88;36.06;93058.81;5004830;28;20064;-88
2022/04/20 05:05:40;;;;;;;63.15;24.10;;;;;;;15.82;36.11;93062.78;5012640;28;20041;-87
2022/04/20 05:08:06;;;;;;;91.45;26.35;;;;;;;15.89;36.40;93063.03;4997933;28;20070;-86
2022/04/20 05:10:31;;;;;;;202.43;35.30;;;;;;;15.86;35.88;93064.03;5011718;28;20056;-87
2022/04/20 05:12:57;;;;;;;86.40;22.33;;;;;;;15.73;35.22;93063.84;4999164;28;20071;-87
2022/04/20 05:15:25;;;;;;;77.10;20.85;;;;;;;15.72;35.10;93067.81;5016812;28;20060;-85
2022/04/20 05:17:50;;;;;;;78.82;23.65;;;;;;;15.65;35.10;93065.59;5013775;28;20285;-87
2022/04/20 05:20:16;;;;;;;60.65;21.35;;;;;;;15.73;35.04;93063.84;5032583;28;20565;-84
2022/04/20 05:22:42;;;;;;;60.20;22.15;;;;;;;15.73;35.24;93061.13;5016742;28;20037;-89
2022/04/20 05:25:08;;;;;;;66.53;25.20;;;;;;;15.72;35.31;93070.53;5012746;28;20442;-88
2022/04/20 05:27:33;;;;;;;76.47;31.52;;;;;;;15.76;35.54;93068.28;5013300;28;20041;-85
2022/04/20 05:29:59;;;;;;;99.78;32.80;;;;;;;15.78;35.88;93068.53;5027300;28;20044;-89
2022/04/20 05:32:24;;;;;;;84.05;26.92;;;;;;;15.79;36.06;93061.09;5001018;28;20526;-84
2022/04/20 05:34:50;;;;;;;95.18;31.00;;;;;;;15.86;36.38;93058.56;5005313;28;20406;-87
2022/04/20 05:42:43;;;;;;;102.70;41.42;;;;;;;15.91;36.71;93066.00;5015546;28;20059;-86
2022/04/20 05:45:10;;;;;;;151.95;54.38;;;;;;;15.85;36.84;93062.53;5014928;28;20446;-85
2022/04/20 05:47:38;;;;;;;64.65;29.02;;;;;;;15.76;34.98;93063.59;4997230;28;20174;-86
2022/04/20 05:50:05;;;;;;;81.22;36.55;;;;;;;15.77;35.29;93058.88;5006646;28;20038;-86
2022/04/20 05:52:31;;;;;;;96.88;39.25;;;;;;;15.84;35.57;93058.31;5007880;28;20060;-84
2022/04/20 05:54:57;;;;;;;106.47;43.97;;;;;;;15.80;35.58;93057.88;5008592;28;20044;-84
2022/04/20 05:57:23;;;;;;;74.90;37.40;;;;;;;15.81;35.79;93069.50;5011196;28;20045;-86
2022/04/20 05:59:48;;;;;;;95.50;40.88;;;;;;;15.84;35.85;93065.75;4998341;28;20041;-85
2022/04/20 06:02:14;;;;;;;93.97;39.92;;;;;;;15.83;35.73;93062.28;5009108;28;20046;-86
2022/04/20 06:04:40;;;;;;;106.45;41.83;;;;;;;15.84;36.44;93071.22;5020932;28;20040;-85
2022/04/20 06:07:06;;;;;;;116.47;40.03;;;;;;;15.84;36.43;93071.97;5041303;28;20602;-86
2022/04/20 06:09:31;;;;;;;99.97;39.17;;;;;;;15.83;36.18;93069.72;5020525;28;20422;-83
2022/04/20 06:11:57;;;;;;;97.82;41.42;;;;;;;15.88;35.71;93058.06;5054803;28;20048;-87
2022/04/20 06:14:23;;;;;;;87.97;40.28;;;;;;;15.95;36.52;93063.00;5036148;28;20567;-84
2022/04/20 06:16:48;;;;;;;115.80;49.95;;;;;;;15.96;36.45;93061.75;5033178;28;20108;-86
2022/04/20 06:19:13;;;;;;;119.97;48.95;;;;;;;16.01;36.68;93063.72;5017733;28;20037;-85
2022/04/20 06:21:39;;;;;;;99.80;44.75;;;;;;;16.03;36.40;93066.66;5012664;28;20049;-86
2022/04/20 06:24:04;;;;;;;111.80;45.28;;;;;;;16.11;36.61;93062.91;5022143;28;20609;-85
2022/04/20 06:26:30;;;;;;;98.80;44.50;;;;;;;16.04;36.87;93059.97;5033322;28;20357;-86
2022/04/20 06:28:56;;;;;;;91.65;43.65;;;;;;;16.02;36.79;93071.38;5027992;28;20041;-86
2022/04/20 06:31:21;;;;;;;114.70;45.40;;;;;;;16.03;37.05;93069.38;5038664;28;20049;-86
2022/04/20 06:33:46;;;;;;;109.75;48.40;;;;;;;16.04;36.79;93065.41;5038782;28;20052;-87
2022/04/20 06:36:12;;;;;;;140.95;53.80;;;;;;;16.07;36.93;93069.88;5011459;28;20044;-88
2022/04/20 06:38:37;;;;;;;163.10;60.60;;;;;;;16.06;37.07;93071.13;5039714;28;20041;-86
2022/04/20 06:41:03;;;;;;;154.38;64.63;;;;;;;16.13;36.79;93058.94;5026884;28;20094;-86
2022/04/20 06:43:29;;;;;;;175.20;74.63;;;;;;;16.06;36.60;93066.41;5010731;28;20111;-86
2022/04/20 06:45:54;;;;;;;133.10;62.90;;;;;;;16.07;37.17;93073.34;5016687;28;20034;-86
2022/04/20 06:48:20;;;;;;;185.00;78.13;;;;;;;16.05;36.95;93066.91;5013930;28;20053;-88
2022/04/20 06:50:45;;;;;;;198.65;83.43;;;;;;;16.05;36.76;93058.72;5021095;28;20048;-86
2022/04/20 06:58:41;;;;;;;153.60;72.53;;;;;;;16.08;36.65;93063.91;5032572;28;20094;-86
2022/04/20 07:01:07;;;;;;;156.52;73.45;;;;;;;16.08;36.67;93058.47;5010013;28;20091;-87
2022/04/20 07:03:36;;;;;;;151.65;72.95;;;;;;;16.07;36.84;93048.81;5034433;28;20061;-86
2022/04/20 07:06:02;;;;;;;158.07;75.18;;;;;;;16.06;37.07;93060.22;5024286;28;20044;-85
2022/04/20 07:08:28;;;;;;;162.55;80.57;;;;;;;16.06;36.92;93057.47;5029089;28;20096;-86
2022/04/20 07:10:53;;;;;;;174.88;81.32;;;;;;;16.11;37.17;93057.47;5011498;28;20084;-86
2022/04/20 07:13:19;;;;;;;161.75;79.90;;;;;;;16.09;37.02;93057.22;5024556;28;20097;-86
2022/04/20 07:15:45;;;;;;;161.90;79.55;;;;;;;16.07;37.31;93070.63;5011181;28;20049;-85
2022/04/20 07:18:10;;;;;;;166.90;82.20;;;;;;;16.08;37.10;93069.38;5030335;28;20059;-87
2022/04/20 07:20:35;;;;;;;182.10;85.53;;;;;;;16.15;36.97;93062.66;5016137;28;20124;-86
2022/04/20 07:23:01;;;;;;;198.48;86.95;;;;;;;16.11;37.21;93064.91;5013757;28;20095;-86
2022/04/20 07:25:26;;;;;;;181.50;88.38;;;;;;;16.10;37.17;93063.41;5027217;28;20040;-85
2022/04/20 07:27:52;;;;;;;196.95;87.85;;;;;;;16.11;37.44;93067.63;5001675;28;20029;-86
2022/04/20 07:30:17;;;;;;;169.10;84.00;;;;;;;16.12;37.10;93060.94;5008493;28;20509;-88
2022/04/20 07:32:43;;;;;;;183.57;88.82;;;;;;;16.08;36.58;93071.34;5027256;28;20502;-89
2022/04/20 07:35:09;;;;;;;155.82;75.30;;;;;;;16.09;36.98;93070.09;5030750;28;20045;-89
2022/04/20 07:37:34;;;;;;;182.88;80.82;;;;;;;16.13;36.98;93067.13;5013606;28;20127;-85
2022/04/20 07:40:00;;;;;;;161.57;80.95;;;;;;;16.11;37.04;93056.72;5007078;28;20530;-85
2022/04/20 07:42:25;;;;;;;198.45;92.53;;;;;;;16.11;36.98;93064.91;5038850;28;20569;-87
2022/04/20 07:44:54;;;;;;;187.25;90.72;;;;;;;16.13;36.88;93070.59;5007750;28;20046;-87
2022/04/20 07:47:22;;;;;;;181.23;82.57;;;;;;;16.12;36.90;93063.66;5023873;28;20049;-85
2022/04/20 07:52:39;;;;;;;148.07;81.72;;;;;;;16.19;37.33;93070.56;5036883;28;20178;-86
2022/04/20 07:55:11;;;;;;;197.82;102.82;;;;;;;16.18;37.33;93072.56;5031285;28;20048;-86
2022/04/20 07:57:37;;;;;;;190.40;100.22;;;;;;;16.23;37.19;93063.59;5039443;28;20553;-86
2022/04/20 08:00:06;;;;;;;225.45;107.07;;;;;;;16.20;37.24;93061.16;5012772;28;20041;-87
2022/04/20 08:02:31;;;;;;;211.07;104.68;;;;;;;16.23;37.21;93068.31;5000714;28;20037;-86
2022/04/20 08:04:57;;;;;;;230.35;105.90;;;;;;;16.23;37.33;93065.59;5027687;28;20038;-87
2022/04/20 08:07:22;;;;;;;233.35;105.65;;;;;;;16.22;37.19;93073.03;5024725;28;20455;-86
2022/04/20 08:09:48;;;;;;;233.90;114.40;;;;;;;16.26;37.27;93068.03;5047926;28;20525;-87
2022/04/20 08:12:13;;;;;;;229.63;114.90;;;;;;;16.23;37.56;93074.50;5042908;28;20045;-87
2022/04/20 08:14:38;;;;;;;236.60;115.80;;;;;;;16.27;37.25;93066.03;5021297;28;20053;-88
2022/04/20 08:17:04;;;;;;;249.40;123.32;;;;;;;16.26;37.27;93080.91;5024986;28;20089;-85
2022/04/20 08:19:29;;;;;;;245.18;118.07;;;;;;;16.28;37.47;93072.97;5013907;28;20056;-88
2022/04/20 08:21:55;;;;;;;244.02;118.20;;;;;;;16.29;37.61;93071.72;5009889;28;20041;-87
2022/04/20 08:24:21;;;;;;;284.85;129.70;;;;;;;16.31;37.40;93077.44;5024377;28;20090;-90
2022/04/20 08:26:46;;;;;;;261.48;118.68;;;;;;;16.32;37.61;93074.19;5012966;28;20047;-87
2022/04/20 08:29:11;;;;;;;242.02;121.40;;;;;;;16.32;37.51;93068.75;5027045;28;20045;-88
2022/04/20 08:31:37;;;;;;;275.50;138.70;;;;;;;16.32;37.35;93074.19;5041263;28;20049;-87
2022/04/20 08:34:03;;;;;;;266.92;137.43;;;;;;;16.34;37.63;93073.69;5025723;28;20862;-86
2022/04/20 08:36:28;;;;;;;284.67;152.55;;;;;;;16.33;37.59;93074.94;5043676;28;20749;-86
2022/04/20 08:38:54;;;;;;;292.88;151.50;;;;;;;16.36;37.47;93063.75;5030296;28;20402;-88
2022/04/20 08:41:19;;;;;;;279.85;147.05;;;;;;;16.36;37.57;93063.75;5022983;28;20055;-87
2022/04/20 08:43:45;;;;;;;281.70;147.75;;;;;;;16.38;37.77;93061.28;5003890;28;20617;-86
2022/04/20 08:46:10;;;;;;;264.50;140.95;;;;;;;16.40;37.75;93066.22;4999961;28;20053;-89
2022/04/20 08:48:36;;;;;;;256.42;137.73;;;;;;;16.41;37.31;93068.44;5013197;28;20048;-84
2022/04/20 08:51:03;;;;;;;267.15;138.95;;;;;;;16.41;37.48;93064.97;5010362;28;20087;-86
2022/04/20 08:53:29;;;;;;;279.73;141.63;;;;;;;16.44;37.35;93047.59;5016994;28;20041;-88
2022/04/20 08:57:15;;;;;;;251.75;133.00;;;;;;;16.43;37.19;93051.56;5002887;28;20037;-86
2022/04/20 08:58:40;;;;;;;271.80;141.30;;;;;;;16.43;37.69;93046.88;5035757;28;20047;-85
2022/04/20 09:01:05;;;;;;;250.93;131.07;;;;;;;16.44;37.72;93053.06;5016095;28;20037;-87
2022/04/20 09:03:31;;;;;;;323.73;148.00;;;;;;;16.47;37.59;93046.56;5042738;28;20079;-88
2022/04/20 09:05:56;;;;;;;276.52;135.60;;;;;;;16.49;37.58;93051.53;5030524;28;20127;-87
2022/04/20 09:08:25;;;;;;;279.52;140.43;;;;;;;16.48;37.52;93048.03;4985775;28;20511;-88
2022/04/20 09:10:51;;;;;;;258.92;128.88;;;;;;;16.45;37.86;93046.34;5027938;28;20127;-86
2022/04/20 09:13:16;;;;;;;246.48;124.65;;;;;;;16.45;37.62;93038.19;5007549;28;20033;-88
2022/04/20 09:15:41;;;;;;;228.30;122.53;;;;;;;16.48;37.81;93039.13;4990594;28;20037;-88
2022/04/20 09:18:08;;;;;;;224.65;120.25;;;;;;;16.46;37.58;93036.91;4992195;28;20068;-88
2022/04/20 09:20:34;;;;;;;228.15;124.97;;;;;;;16.47;37.74;93041.09;5005497;28;20045;-88
2022/04/20 09:23:10;;;;;;;238.02;122.90;;;;;;;16.50;37.62;93039.34;4996641;28;20033;-87
2022/04/20 09:25:36;;;;;;;245.80;132.10;;;;;;;16.52;37.52;93039.59;5015890;28;20041;-87
2022/04/20 09:28:04;;;;;;;255.57;133.32;;;;;;;16.50;37.62;93031.91;5008414;28;20056;-87
2022/04/20 09:30:38;;;;;;;231.75;120.50;;;;;;;16.50;37.44;93031.19;5024507;28;20055;-88
2022/04/20 09:33:06;;;;;;;254.05;126.22;;;;;;;16.51;37.93;93029.94;5008948;28;20072;-85
2022/04/20 09:35:48;;;;;;;256.80;128.20;;;;;;;16.51;37.56;93027.19;5013591;28;20048;-89
2022/04/20 09:38:17;;;;;;;;;;;;;;;16.52;37.64;93029.41;5006776;28;20413;-86
2022/04/20 09:40:43;;;;;;;222.82;111.57;;;;;;;16.53;37.41;93025.44;5005444;28;19963;-86
2022/04/20 09:43:12;;;;;;;229.85;116.88;;;;;;;16.55;37.38;93028.41;5009720;28;20049;-86
2022/04/20 09:45:38;;;;;;;188.57;102.03;;;;;;;16.50;37.54;93026.47;5009543;28;20566;-87
2022/04/20 09:51:08;;;;;;;200.07;108.85;;;;;;;16.51;37.29;93021.75;5010588;28;20202;-88
2022/04/20 09:53:33;;;;;;;225.70;109.82;;;;;;;16.54;37.48;93028.91;5030210;28;20076;-88
2022/04/20 09:56:23;;;;;;;217.52;104.80;;;;;;;16.56;37.54;93024.44;4991371;28;20033;-89
2022/04/20 09:59:00;;;;;;;207.65;107.15;;;;;;;16.53;37.21;93024.72;4995641;28;20048;-87
2022/04/20 10:01:34;;;;;;;206.30;102.97;;;;;;;16.54;37.58;93020.72;5022822;28;20037;-87
2022/04/20 10:04:01;;;;;;;160.05;74.25;;;;;;;16.49;35.86;93022.25;4988641;28;20047;-85
2022/04/20 10:06:26;;;;;;;115.50;58.83;;;;;;;16.39;34.57;93027.28;5007727;28;20068;-87
2022/04/20 10:08:51;;;;;;;93.68;44.25;;;;;;;16.34;34.23;93025.34;5008010;28;20026;-87
2022/04/20 10:11:17;;;;;;;97.80;43.95;;;;;;;16.33;34.57;93021.13;5002497;28;20458;-87
2022/04/20 10:13:42;;;;;;;83.60;43.42;;;;;;;16.34;34.63;93017.16;5012626;28;20435;-85
2022/04/20 10:16:12;;;;;;;89.45;45.40;;;;;;;16.35;34.57;93012.44;4992159;28;20037;-85
2022/04/20 10:18:39;;;;;;;90.65;44.67;;;;;;;16.37;34.52;93007.97;5006407;28;20084;-88
2022/04/20 10:21:11;;;;;;;104.50;48.05;;;;;;;16.40;35.03;93011.66;4999476;28;20033;-88
2022/04/20 10:23:39;;;;;;;113.40;53.47;;;;;;;16.47;35.61;93002.91;5011584;28;20045;-87
2022/04/20 10:26:07;;;;;;;131.10;54.63;;;;;;;16.50;35.48;92998.44;4993796;28;20551;-87
2022/04/20 10:28:32;;;;;;;106.22;52.03;;;;;;;16.50;35.78;92992.97;5007046;28;20719;-87
2022/04/20 10:31:00;;;;;;;103.53;54.67;;;;;;;16.50;36.19;93001.16;5030453;28;20234;-88
2022/04/20 10:33:26;;;;;;;83.93;45.20;;;;;;;16.44;35.26;92993.03;5030461;28;20116;-87
2022/04/20 10:36:01;;;;;;;80.97;41.03;;;;;;;16.38;35.10;93001.25;5000934;28;20045;-87
2022/04/20 10:38:29;;;;;;;67.20;31.58;;;;;;;16.33;35.01;92993.84;5018657;28;20045;-86
2022/04/20 10:41:08;;;;;;;82.63;33.17;;;;;;;16.39;35.14;92986.38;5015925;28;20110;-87
2022/04/20 10:43:41;;;;;;;59.30;34.88;;;;;;;16.44;34.80;92987.59;5011981;28;20038;-86
2022/04/20 10:46:19;;;;;;;65.50;33.25;;;;;;;16.48;34.87;92987.28;5013656;28;20423;-89
2022/04/20 10:49:07;;;;;;;79.85;35.17;;;;;;;16.50;34.61;92985.53;5011041;28;20120;-86
2022/04/20 10:51:41;;;;;;;90.13;38.15;;;;;;;16.48;35.02;92979.09;5028865;28;20127;-85
2022/04/20 10:54:29;;;;;;;70.35;36.28;;;;;;;16.50;35.08;92976.59;5030224;28;20041;-85
2022/04/20 10:57:01;;;;;;;87.78;40.92;;;;;;;16.50;35.55;92966.44;5030975;28;20041;-85
2022/04/20 10:59:27;;;;;;;104.20;46.25;;;;;;;16.52;35.52;92968.66;5047057;28;20048;-85
2022/04/20 11:01:58;;;;;;;130.18;49.72;;;;;;;16.51;36.00;92970.63;5001163;28;20065;-85
2022/04/20 11:04:44;;;;;;;130.95;52.05;;;;;;;16.51;36.24;92970.63;5028353;28;20578;-85
2022/04/20 11:07:09;;;;;;;118.70;46.83;;;;;;;16.56;35.99;92964.41;5040280;28;20079;-85
2022/04/20 11:09:40;;;;;;;137.85;48.97;;;;;;;16.55;36.32;92965.66;5026075;28;20053;-86
2022/04/20 11:21:11;;;;;;;130.15;54.08;;;;;;;16.61;36.08;92941.78;5040662;28;20067;-87
2022/04/20 11:23:59;;;;;;;134.50;56.65;;;;;;;16.59;36.28;92946.28;5019901;28;20049;-85
2022/04/20 11:26:33;;;;;;;131.93;57.20;;;;;;;16.60;36.40;92940.31;5007123;28;20052;-87
2022/04/20 11:29:02;;;;;;;124.63;60.20;;;;;;;16.60;36.35;92939.56;5036161;28;20046;-86
2022/04/20 11:31:36;;;;;;;126.35;58.72;;;;;;;16.59;36.29;92927.19;5002509;28;20065;-85
2022/04/20 11:34:01;;;;;;;109.95;56.38;;;;;;;16.60;36.75;92929.41;4994642;28;20300;-85
2022/04/20 11:36:27;;;;;;;113.90;55.45;;;;;;;16.61;36.32;92925.41;5015735;28;20051;-86
2022/04/20 11:38:53;;;;;;;115.72;56.53;;;;;;;16.60;36.34;92934.84;5006535;28;20458;-87
2022/04/20 11:41:19;;;;;;;108.57;55.63;;;;;;;16.63;36.38;92930.38;5024499;28;20086;-86
2022/04/20 11:43:45;;;;;;;108.38;53.83;;;;;;;16.64;36.46;92929.16;5004000;28;20041;-86
2022/04/20 11:46:10;;;;;;;112.60;54.53;;;;;;;16.62;36.40;92918.72;4993702;28;20040;-86